NWS Home NWS Lubbock West Texas Mesonet                      Daily Summary For 05/06/2021

Latest   N   C   S   Daily Sum   3hrΔ   24hrΔ   Soil Data 
Site Map   24hr Precip   72hr Precip   Google Plot


Station Time of Last Max Temp Min Temp Max/Min Dew Pt. Max/Min RH 10m Avg Wind 2m Avg Wind Peak Gust @ 33ft (mph) Potential Evapotranspiration
mm/day or in/day
Rain Sum Solar Rad
MJ/m^2
% Clear Day Red Flag
Abernathy 5ENE 11:59 PM 72 58 60 /55 96 / 60 13.9  (SE) 11.2 28.5 mph 67° @ 0311 AM 3.8 or 0.15 0.00 30 220.9 0
Adrian 6WSW 11:59 PM 72 58 60 /55 96 / 60 15.3  (NE) 12.5 33.7 mph 61° @ 1210 AM 3.6 or 0.14 0.00 30.1 231.7 0
Aiken 3WSW 11:59 PM 72 58 60 /55 96 / 60 13.8  (E) 10.5 29.6 mph 63° @ 0247 AM 3.8 or 0.15 0.00 28.9 215 0
Amarillo 15NNW 11:59 PM 72 58 60 /55 96 / 60 9.7  (NE) 7.4 29.7 mph 64° @ 1216 AM 3 or 0.12 0.00 28.3 220.8 0
Amarillo 7SSE 11:59 PM 72 58 60 /55 96 / 60 11.4  (NE) 8.6 28.2 mph 61° @ 1235 AM 3.3 or 0.13 0.00 28.5 219.1 0
Amarillo 9NNE 11:59 PM 72 58 60 /55 96 / 60 11.2  (NE) 9.5 30.3 mph 58° @ 1202 AM 3.3 or 0.13 0.00 29.4 228 0
Amherst 1NE 11:59 PM 72 58 60 /55 96 / 60 13.1  (SE) 10.6 28.5 mph 77° @ 0437 AM 3.8 or 0.15 0.00 29.8 220 0
Andrews 2E 11:59 PM 72 58 60 /55 96 / 60 11  (S) 7 25.2 mph 108° @ 0804 PM 4.1 or 0.16 0.00 29.5 206.5 0
Anton 6SSW 11:55 PM 72 58 60 /55 96 / 60 14.2  (SE) 11.6 29 mph 114° @ 0950 AM 4.1 or 0.16 0.00 29.6 216.5 0
Aspermont 3NE 11:59 PM 72 58 60 /55 96 / 60 6.8  (E) 3.1 18.6 mph 119° @ 0514 PM 2.8 or 0.11 0.00 30.1 219.3 0
Big Bend NP - Castolon 11:59 PM 72 58 60 /55 96 / 60 6.9  (S) 5.5 28.1 mph 111° @ 1002 PM 4.3 or 0.17 0.00 29.4 188.1 0
Big Bend NP - Persimmon Gap 11:59 PM 72 58 60 /55 96 / 60 14.1  (N) 11.9 33.2 mph 36° @ 0915 PM 5.8 or 0.23 0.00 28.4 183.5 0
Big Lake 1WNW 11:59 PM 72 58 60 /55 96 / 60 8.7  (S) 7 20.7 mph 98° @ 0113 PM 3.8 or 0.15 0.00 30.1 204.1 0
Bootleg 11WNW 11:59 PM 72 58 60 /55 96 / 60 14.8  (NE) 11.7 28.3 mph 39° @ 0143 AM 3.6 or 0.14 0.00 26.9 204 0
Borger 7E 11:59 PM 72 58 60 /55 96 / 60 9.5  (E) 7.1 28.5 mph 147° @ 1151 PM 2.8 or 0.11 0.00 30.2 237.7 0
Boys Ranch 1WSW 11:59 PM 72 58 60 /55 96 / 60 6.9  (NE) 5.5 30 mph 70° @ 1206 AM 2.5 or 0.1 0.00 29.8 233.3 0
Brownfield 2S 11:59 PM 72 58 60 /55 96 / 60 13.8  (SE) 11.4 27.4 mph 137° @ 0511 PM 3.8 or 0.15 0.00 30.2 217.1 0
Canadian 6E 11:59 PM 72 58 60 /55 96 / 60 7  (E) 5 18.9 mph 345° @ 1132 AM 2.3 or 0.09 0.02 28.9 231.2 0
Caprock Canyons State Park 11:59 PM 72 58 60 /55 96 / 60 8.6  (NE) 6 23.2 mph 182° @ 0618 PM 3 or 0.12 0.00 26.2 197.7 0
Childress 2NNE 11:55 PM 72 58 60 /55 96 / 60 8.6  (E) 5.8 19.8 mph 120° @ 0540 PM 3 or 0.12 0.00 28 212.7 0
Clarendon 2WSW 11:55 PM 72 58 60 /55 96 / 60 8.7  (NE) 6.4 24 mph 37° @ 1220 AM 2.5 or 0.1 0.00 29.6 227.5 0
Claude 12SW 11:59 PM 72 58 60 /55 96 / 60 10.5  (NE) 7.6 28.5 mph 49° @ 1238 AM 3 or 0.12 0.00 29.7 227.1 0
Clyde 2WNW 11:59 PM 72 58 60 /55 96 / 60 8.2  (SE) 5.6 20.4 mph 108° @ 0314 AM 3 or 0.12 0.00 28.8 203.8 0
Colorado City 5NW 11:59 PM 72 58 60 /55 96 / 60 9.7  (SE) 6.4 22.1 mph 140° @ 1228 PM 3.6 or 0.14 0.00 27.8 196.6 0
Comanche Springs 11:59 PM 72 58 60 /55 96 / 60 6.6  (E) 4.5 20.8 mph 94° @ 0505 PM 2.5 or 0.1 0.00 28.3 212.6 0
Coyanosa 2N 11:59 PM 72 58 60 /55 96 / 60 11.5  (SE) 8.1 31.8 mph 318° @ 0759 AM 5.1 or 0.2 0.00 29.2 198.8 0
Crane 1NNW 11:59 PM 72 58 60 /55 96 / 60 10.9  (S) 9.1 24.8 mph 124° @ 1045 AM 4.6 or 0.18 0.00 30 205.1 0
Crowell 1E 11:59 PM 72 58 60 /55 96 / 60 6.6  (SE) 5 15.9 mph 99° @ 0308 PM 2.5 or 0.1 0.00 27 203 0
Dell City 11:59 PM 72 58 60 /55 96 / 60 8.6  (W) 5.4 26.5 mph 148° @ 0641 PM 3.8 or 0.15 0.00 28.7 197.6 0
Denver City 7WNW 11:55 PM 72 58 60 /55 96 / 60 12.9  (S) 9.6 24.9 mph 147° @ 0400 PM 4.1 or 0.16 0.00 31 221.1 0
Dimmitt 2NE 11:55 PM 72 58 60 /55 96 / 60 15.2  (E) 12.7 33.8 mph 71° @ 0250 AM 3.6 or 0.14 0.00 29.2 219.4 0
Doole 3WNW 11:59 PM 72 58 60 /55 96 / 60 7.3  (NE) 5.6 20.2 mph 106° @ 0436 PM 3.6 or 0.14 0.00 30.2 207.6 0
Dora NM 2SW 11:55 PM 72 58 60 /55 96 / 60 11.4  (S) 8.8 25.2 mph 144° @ 1100 PM 3.3 or 0.13 0.00 27.6 202.4 0
Dozier 3W 11:59 PM 72 58 60 /55 96 / 60 7  (NE) 4.6 23.6 mph 54° @ 1216 AM 2.5 or 0.1 0.00 29 224.8 0
Earth 9WSW 11:59 PM 72 58 60 /55 96 / 60 13.1  (SE) 10 34.5 mph 74° @ 0430 AM 3.8 or 0.15 0.00 30.1 223.3 0
Endee NM 2SW 11:59 PM 72 58 60 /55 96 / 60 14.4  (NE) 11.1 35.7 mph 32° @ 1206 AM 3.8 or 0.15 0.00 28.4 217.6 0
Estelline 3SSE 11:59 PM 72 58 60 /55 96 / 60 7.3  (NE) 5.1 21.6 mph 101° @ 0644 PM 2.8 or 0.11 0.00 28.6 218.1 0
Floydada 2NNE 11:55 PM 72 58 60 /55 96 / 60 13  (E) 10.2 24.1 mph 147° @ 0100 PM 3.6 or 0.14 0.00 28.6 212 0
Fluvanna 3WNW 11:55 PM 72 58 60 /55 96 / 60 11.3  (SE) 9.1 24.7 mph 128° @ 0225 PM 3.6 or 0.14 0.00 28.4 203.1 0
Fort Chadbourne 11:59 PM 72 58 60 /55 96 / 60 7.9  (SE) 5.6 19.6 mph 88° @ 0836 AM 3.3 or 0.13 0.00 27.8 194.5 0
Fort Lancaster 11:59 PM 72 58 60 /55 96 / 60 9.4  (SE) 6.8 22.4 mph 129° @ 0136 PM 4.3 or 0.17 0.00 28.5 190.7 0
Fort Lewis CO 11:59 PM 72 58 60 /55 96 / 60 8.2  (NE) 5.2 29.2 mph 231° @ 0301 PM 1.8 or 0.07 0.00 31.6 254.7 0
Fort McKavett 11:59 PM 72 58 60 /55 96 / 60 5.9  (SE) 2.5 15.6 mph 53° @ 0231 PM 3 or 0.12 0.00 29.2 196.2 0
Friona 2NE 11:55 PM 72 58 60 /55 96 / 60 14.2  (SE) 11.6 29 mph 80° @ 0130 AM 3.6 or 0.14 0.00 30.1 226.6 0
Fritch 1WNW 11:59 PM 72 58 60 /55 96 / 60 8.8  (E) 7 25.9 mph 122° @ 0213 AM 2.8 or 0.11 0.00 29.6 232.7 0
Gail 2ESE 11:59 PM 72 58 60 /55 96 / 60 8.5  (SE) 5.9 24.1 mph 152° @ 0145 PM 3.3 or 0.13 0.00 29.9 213.2 0
Goodlett 3W 11:55 PM 72 58 60 /55 96 / 60 7.6  (E) 5.6 18.1 mph 103° @ 0315 PM 2.8 or 0.11 0.00 28.7 217.6 0
Goodnight 11:59 PM 72 58 60 /55 96 / 60 9  (NE) 6.6 25.3 mph 48° @ 1213 AM 2.8 or 0.11 0.00 28.5 219.3 0
Graham 5SSW 11:59 PM 72 58 60 /55 96 / 60 12.6  (SE) 9.9 31.8 mph 45° @ 0347 AM 3.8 or 0.15 0.00 30.4 218.6 0
Guadalupe Mtns Natl Park 11:59 PM 72 58 60 /55 96 / 60 9  (N) 6.4 24.1 mph 58° @ 0357 PM 3.3 or 0.13 0.00 31.4 212.3 0
Guthrie 10WSW 11:59 PM 72 58 60 /55 96 / 60 9  (E) 6.1 23 mph 156° @ 0121 PM 3.3 or 0.13 0.00 29.9 220.6 0
Hackberry 2SSE 11:59 PM 72 58 60 /55 96 / 60 9.2  (E) 6.9 24 mph 171° @ 1222 PM 3.3 or 0.13 0.00 29.9 223.6 0
Happy 1E 11:59 PM 72 58 60 /55 96 / 60 12.6  (E) 10.2 31.1 mph 171° @ 0327 PM 3.3 or 0.13 0.00 30.4 230.3 0
Hart 3N 11:55 PM 72 58 60 /55 96 / 60 13.7  (E) 10.4 33.4 mph 65° @ 0320 AM 3.6 or 0.14 0.00 29.6 222.1 0
Haskell 1NW 11:55 PM 72 58 60 /55 96 / 60 7.2  (E) 5.8 16.5 mph 74° @ 0725 PM 2.8 or 0.11 0.00 27.9 203.3 0
Hefner 1SW 11:59 PM 72 58 60 /55 96 / 60 8.4  (E) 5.4 18.7 mph 86° @ 0445 PM 3 or 0.12 0.00 28.9 213.4 0
Hereford 2NW 11:55 PM 72 58 60 /55 96 / 60 11.8  (NE) 10 26.1 mph 59° @ 0235 AM 3.3 or 0.13 0.00 29.5 223.6 0
Hobbs NM 5NW 11:59 PM 72 58 60 /55 96 / 60 10.8  (S) 7.9 26.7 mph 36° @ 0435 AM 3.8 or 0.15 0.00 29.7 210 0
Jayton 1SSE 11:55 PM 72 58 60 /55 96 / 60 9.8  (SE) 7.3 24.6 mph 109° @ 0305 PM 3.3 or 0.13 0.00 29.5 215.1 0
Junction 1SSW 11:59 PM 72 58 60 /55 96 / 60 4.6  (N) 3.5 17.5 mph 43° @ 0203 PM 2.8 or 0.11 0.00 25.4 169.5 0
Kent 9E 11:59 PM 72 58 60 /55 96 / 60 8.9  (SE) 6.3 26 mph 96° @ 0915 PM 3.8 or 0.15 0.00 29.4 196.5 0
Knox City 3NW 11:59 PM 72 58 60 /55 96 / 60 7.7  (E) 5.1 20.8 mph 86° @ 0511 PM 3 or 0.12 0.00 30.2 222.8 0
Lake Alan Henry 1NW 11:59 PM 72 58 60 /55 96 / 60 8.9  (SE) 6 19 mph 64° @ 0349 AM 3.3 or 0.13 0.00 29.1 210.5 0
Lake McClellan 2NW 11:59 PM 72 58 60 /55 96 / 60 9.7  (NE) 7.7 25 mph 53° @ 1202 AM 2.8 or 0.11 0.00 28.5 220.5 0
Lamesa 1S 11:55 PM 72 58 60 /55 96 / 60 11.5  (SE) 7.4 24.6 mph 96° @ 0955 AM 3.8 or 0.15 0.00 6 213.4 0
Lesley 2S 11:59 PM 72 58 60 /55 96 / 60 10.1  (NE) 7.3 27.5 mph 50° @ 0214 AM 3.3 or 0.13 0.00 28.5 217.7 0
Levelland 4S 11:59 PM 72 58 60 /55 96 / 60 14  (SE) 12 31.8 mph 124° @ 0957 AM 3.8 or 0.15 0.00 29.5 214.5 0
Lomax 1SSE 11:59 PM 72 58 60 /55 96 / 60 11.4  (SE) 9 24.3 mph 110° @ 0132 PM 4.1 or 0.16 0.00 29.9 208.7 0
Lubbock 3WNW TTU 11:55 PM 72 58 60 /55 96 / 60 11.4  (SE) 7.3 26.2 mph 119° @ 0955 AM 3.6 or 0.14 0.00 29.6 216.5 0
McAdoo 3NNW 11:59 PM 72 58 60 /55 96 / 60 12  (E) 9.3 24.1 mph 125° @ 1053 PM 3.6 or 0.14 0.00 29.4 216.4 0
McCamey 1SSW 11:59 PM 72 58 60 /55 96 / 60 10.4  (SE) 8.9 24.5 mph 145° @ 0107 PM 4.6 or 0.18 0.00 29.1 196.8 0
McLean 1E 11:55 PM 72 58 60 /55 96 / 60 8.1  (NE) 6.4 22.4 mph 63° @ 0115 AM 2.5 or 0.1 0.00 29.1 226 0
Memphis 1NE 11:59 PM 72 58 60 /55 96 / 60 6  (NE) 4 19.7 mph 32° @ 0204 AM 2.3 or 0.09 0.00 27.2 208.3 0
Menard 2NW 11:59 PM 72 58 60 /55 96 / 60 5.2  (E) 4.3 16.9 mph 71° @ 0346 PM 2.8 or 0.11 0.00 27.2 184.2 0
Mertzon 3NNE 11:59 PM 72 58 60 /55 96 / 60 7.3  (SW) 5.1 21 mph 78° @ 0225 PM 3.3 or 0.13 0.00 27.6 188.5 0
Morton 1ENE 11:55 PM 72 58 60 /55 96 / 60 12.7  (S) 9.9 24.6 mph 72° @ 0425 AM 3.6 or 0.14 0.00 29.3 214.3 0
Muleshoe 2SSW 11:55 PM 72 58 60 /55 96 / 60 12.5  (SE) 10 27.9 mph 88° @ 0335 AM 3.6 or 0.14 0.00 31.7 235.3 0
New Home 11:59 PM 72 58 60 /55 96 / 60 10.7  (SE) 6 27.8 mph 124° @ 1115 AM 3.6 or 0.14 0.00 29.4 212.4 0
Northfield 1S 11:55 PM 72 58 60 /55 96 / 60 7.8  (E) 5.3 20.4 mph 127° @ 0715 PM 2.8 or 0.11 0.00 25.8 195 0
O'Donnell 1N 11:59 PM 72 58 60 /55 96 / 60 12.5  (SE) 10 28.5 mph 101° @ 1040 AM 3.8 or 0.15 0.00 30.7 220 0
Odell 4ENE 11:59 PM 72 58 60 /55 96 / 60 6.8  (E) 4.7 21.7 mph 77° @ 0314 PM 2.5 or 0.1 0.01 28.7 218.5 0
Olton 6S 11:55 PM 72 58 60 /55 96 / 60 13.3  (E) 10.8 25.1 mph 75° @ 0420 AM 3.6 or 0.14 0.00 29.3 217.3 0
Paducah 10SW 11:59 PM 72 58 60 /55 96 / 60 9.3  (E) 5.8 28.5 mph 94° @ 0744 PM 3.3 or 0.13 0.00 30.3 225.7 0
Palo Duro 4E (JA Ranch) 11:59 PM 72 58 60 /55 96 / 60 8.1  (NE) 6.1 22.8 mph 100° @ 0423 PM 2.8 or 0.11 0.00 28.5 218.6 0
Palo Duro Canyon SP Floor 11:59 PM 72 58 60 /55 96 / 60 7.2  (E) 3.1 25.6 mph 120° @ 0121 AM 2.5 or 0.1 0.00 27.6 211.8 0
Palo Duro Canyon State Park Rim 11:59 PM 72 58 60 /55 96 / 60 8.9  (NE) 5.3 26.4 mph 147° @ 0512 PM 2.8 or 0.11 0.00 28.3 216.8 0
Palo Duro Reservoir 1NW 11:59 PM 72 58 60 /55 96 / 60 8.2  (S) 6.1 26.1 mph 133° @ 1042 PM 2.3 or 0.09 0.05 27.6 223.4 0
Pampa 2E 11:55 PM 72 58 60 /55 96 / 60 8.2  (NE) 6.3 22.5 mph 97° @ 0130 AM 2.5 or 0.1 0.00 27.9 218.5 0
Panhandle 1SSW 11:59 PM 72 58 60 /55 96 / 60 9.6  (NE) 7.8 23.9 mph 52° @ 1205 AM 2.8 or 0.11 0.00 29.3 227.6 0
Plains 3N 11:55 PM 72 58 60 /55 96 / 60 13.9  (S) 11.6 26.1 mph 24° @ 0320 AM 4.1 or 0.16 0.00 30.4 218.5 0
Plainview 1S 11:59 PM 72 58 60 /55 96 / 60 11.2  (E) 9.1 28.5 mph 67° @ 0325 AM 3.3 or 0.13 0.00 30 223.4 0
Post 1NE 11:59 PM 72 58 60 /55 96 / 60 8.9  (SE) 5.5 24.1 mph 111° @ 1150 AM 3.3 or 0.13 0.00 29.9 216.8 0
Ralls 1SE 11:59 PM 72 58 60 /55 96 / 60 13.1  (SE) 9.8 29.6 mph 121° @ 0636 PM 3.8 or 0.15 0.00 29.6 216.9 0
Reese Center 11:59 PM 72 58 60 /55 96 / 60 15.1  (SE) 12.3 35.1 mph 126° @ 1017 AM 4.1 or 0.16 0.00 30 218.9 0
Roaring Springs 3N 11:59 PM 72 58 60 /55 96 / 60 9.7  (E) 7.1 25.2 mph 114° @ 0241 PM 3.3 or 0.13 0.00 30.3 224.8 0
Romero 11SSW 11:59 PM 72 58 60 /55 96 / 60 8.9  (NE) 6.7 30.5 mph 39° @ 1203 AM 2.8 or 0.11 0.00 28.2 220 0
Rotan 5W 11:59 PM 72 58 60 /55 96 / 60 9.3  (SE) 7 18.6 mph 63° @ 0421 AM 3.3 or 0.13 0.00 35.3 253.4 0
San Angelo 7NW 11:55 PM 72 58 60 /55 96 / 60 9.7  (NE) 6.5 24.1 mph 87° @ 0205 PM 3.8 or 0.15 0.00 28.1 193.4 0
Seagraves 1SW 11:59 PM 72 58 60 /55 96 / 60 9.6  (S) 6.8 28.5 mph 18° @ 0356 AM 3.6 or 0.14 0.00 30.4 216.6 0
Segovia 7SSW 11:59 PM 72 58 60 /55 96 / 60 7  (SE) 4.8 21.2 mph 28° @ 0412 PM 3.3 or 0.13 0.00 29.6 195.8 0
Seminole 2NNE 11:55 PM 72 58 60 /55 96 / 60 12.4  (S) 9.6 27.8 mph 20° @ 0425 AM 4.1 or 0.16 0.00 6 212.4 0
Seymour 3NW 11:55 PM 72 58 60 /55 96 / 60 5.8  (E) 4.2 18.4 mph 54° @ 0130 AM 2.3 or 0.09 0.00 26 192.7 0
Sierra Blanca 1SSE 11:59 PM 72 58 60 /55 96 / 60 8.1  (E) 6.3 25.7 mph 106° @ 0547 PM 3.6 or 0.14 0.00 25.7 171 0
Silverton 7ESE 11:55 PM 72 58 60 /55 96 / 60 12.7  (E) 9.8 28.1 mph 59° @ 0210 AM 3.6 or 0.14 0.00 24.5 184 0
Slaton 2NE 11:59 PM 72 58 60 /55 96 / 60 12.5  (SE) 9.8 28.5 mph 107° @ 1116 AM 3.8 or 0.15 0.00 30.5 221.9 0
Smyer 11:59 PM 72 58 60 /55 96 / 60 11.7  (SE) 8.6 28.6 mph 103° @ 1014 AM 3.6 or 0.14 0.00 30.8 224.6 0
Snyder 3E 11:55 PM 72 58 60 /55 96 / 60 11.1  (SE) 4.5 24.8 mph 67° @ 0530 AM 3.8 or 0.15 0.00 27 192.7 0
Snyder 3SSW 11:59 PM 72 58 60 /55 96 / 60 9.4  (SE) 6.6 21.9 mph 114° @ 1219 PM 3.6 or 0.14 0.00 28.8 205.5 0
South Plains 3ENE 11:59 PM 72 58 60 /55 96 / 60 11.4  (E) 8.8 24.5 mph 116° @ 0523 PM 3.3 or 0.13 0.00 27 202.1 0
Spur 1W 11:55 PM 72 58 60 /55 96 / 60 8.5  (E) 6.8 22.4 mph 134° @ 0405 PM 3 or 0.12 0.00 29.7 217.3 0
St. Lawrence 5SW 11:59 PM 72 58 60 /55 96 / 60 13.7  (SE) 11.4 27.4 mph 106° @ 0439 PM 4.8 or 0.19 0.00 31.1 214.1 0
Stamford 5ESE 11:59 PM 72 58 60 /55 96 / 60 8.1  (SE) 6.2 17 mph 111° @ 0631 PM 3 or 0.12 0.00 29 209.6 0
Sterling City 4WSW 11:59 PM 72 58 60 /55 96 / 60 8.5  (E) 6.1 22 mph 100° @ 0132 PM 3.3 or 0.13 0.00 23.9 165.6 0
Stinnett 1NNW 11:59 PM 72 58 60 /55 96 / 60 7.4  (E) 5.5 28 mph 144° @ 1152 PM 2.3 or 0.09 0.00 28.5 225.2 0
Stratford 4WNW 11:59 PM 72 58 60 /55 96 / 60 8.8  (NE) 6.1 23.2 mph 155° @ 0640 PM 2.3 or 0.09 0.00 30.1 241.7 0
Sundown 8WSW 11:55 PM 72 58 60 /55 96 / 60 13  (S) 9 27.6 mph 108° @ 0910 AM 3.8 or 0.15 0.00 26.6 192 0
Sweetwater 11SW 11:59 PM 72 58 60 /55 96 / 60 10.6  (SE) 8.2 27.8 mph 147° @ 1246 AM 3.6 or 0.14 0.00 31.7 223.2 0
Tahoka 3NNE 11:59 PM 72 58 60 /55 96 / 60 12  (SE) 8.3 24.3 mph 97° @ 1112 AM 3.6 or 0.14 0.00 29.5 212.6 0
Tarzan 2WNW 11:59 PM 72 58 60 /55 96 / 60 13.1  (SE) 8.7 25.3 mph 125° @ 0106 PM 4.3 or 0.17 0.00 29.5 206.9 0
Tatum NM 2SW 11:55 PM 72 58 60 /55 96 / 60 11.7  (S) 7.5 22.9 mph 75° @ 0530 AM 3.8 or 0.15 0.00 29.7 212.8 0
Throckmorton 1SW 11:59 PM 72 58 60 /55 96 / 60 5.3  (SE) 2 14.7 mph 92° @ 0322 PM 2.5 or 0.1 0.00 29.6 216.2 0
Truscott 2SE 11:59 PM 72 58 60 /55 96 / 60 7.3  (E) 4.7 20.7 mph 76° @ 0415 PM 2.8 or 0.11 0.00 29.1 216.7 0
Tulia 2ENE 11:55 PM 72 58 60 /55 96 / 60 12.5  (E) 9.9 28.3 mph 140° @ 1210 PM 3.3 or 0.13 0.00 25.8 194.6 0
Turkey 2WSW 11:55 PM 72 58 60 /55 96 / 60 9.4  (E) 7.5 23.6 mph 49° @ 0200 AM 3 or 0.12 0.00 21.9 165.4 0
Umbarger 3NNE 11:59 PM 72 58 60 /55 96 / 60 12.9  (NE) 10.2 28.7 mph 153° @ 0136 PM 3.6 or 0.14 0.00 28.9 220.7 0
Van Horn 3ENE 11:59 PM 72 58 60 /55 96 / 60 10  (NW) 7 26.8 mph 14° @ 0107 PM 4.1 or 0.16 0.00 29.6 197.3 0
Vega 4E 11:59 PM 72 58 60 /55 96 / 60 12.9  (NE) 10.5 38.4 mph 58° @ 1214 AM 3.3 or 0.13 0.00 30.2 232.2 0
Vigo Park 11:59 PM 72 58 60 /55 96 / 60 11.5  (E) 8 25.1 mph 60° @ 0205 AM 3.3 or 0.13 0.00 26 196.9 0
Wall 2E 11:59 PM 72 58 60 /55 96 / 60 9.1  (SE) 7.2 18.5 mph 80° @ 0335 PM 3.8 or 0.15 0.00 29.1 199.9 0
Weinert 2NNE 11:59 PM 72 58 60 /55 96 / 60 7.8  (SE) 5.8 17.2 mph 68° @ 0317 PM 2.8 or 0.11 0.00 26.6 194.9 0
Welch 11:59 PM 72 58 60 /55 96 / 60 12.9  (S) 9.8 30.2 mph 122° @ 0204 PM 4.1 or 0.16 0.00 29.7 212.2 0
Wellington 6SE 11:59 PM 72 58 60 /55 96 / 60 8.7  (NE) 6.7 25.2 mph 30° @ 0134 AM 3 or 0.12 0.00 28.2 217.2 0
White River Lake 6NW 11:59 PM 72 58 60 /55 96 / 60 10.9  (E) 7.7 26.3 mph 48° @ 0330 AM 3.6 or 0.14 0.00 30.9 226 0
Wolfforth 6SSW 11:59 PM 72 58 60 /55 96 / 60 14.1  (SE) 11.6 31.8 mph 124° @ 1035 AM 4.1 or 0.16 0.00 29.9 216.8 0

WestTexas Mesonet Home    Site Map/Menu  National Weather Service Lubbock   Soil Data   Latest Observation Page   Previous  Date   Next Last